Regionale Übersicht

METAR und TAF

Donnerstag, 21. Februar 2019 - 11:15 Uhr

Beobachtete horizontale meteorologische Sicht an ausgewählten Flughäfen. Die vollständigen METARs und Flugwettervorhersagen (TAFs) sind verfügbar, wenn Sie auf das entsprechende Symbol mit der ICAO-Flughafenkennung klicken.

  • Luxemburg (ELLX)

    Taf: TAF ELLX 210500Z 2106/2212 27005KT 7000 NSC PROB40 TEMPO 2106/2109 3000 BR BECMG 2200/2202 0200 FG BKN001 BECMG 2206/2208 7000 SCT010=

    Metar: METAR ELLX 210950Z 21004KT 150V270 9000 NSC 08/05 Q1028 NOSIG=

  • Spangdahlem (ETAD)

    Taf: TAF ETAD 210500Z 2105/2211 VRB03KT 8000 BR OVC050 QNH3030INS BECMG 2105/2106 VRB03KT 3200 BR FEW003 BKN015 QNH3031INS TEMPO 2105/2111 1600 BR BECMG 2108/2109 24012KT 9000 BR SCT015 QNH3034INS BECMG 2114/2115 26007KT 9999 NSW BKN060 QNH3035INS BECMG 2120/2121 27009KT 9000 BR BKN010 QNH3036INS BECMG 2202/2203 34006KT 3200 BR OVC005 QNH3040INS BECMG 2209/2210 02009KT 9000 BR BKN007 QNH3048INS TX10/2115Z TN04/2105Z=

    Metar: nil

  • Metz/Nancy (LFJL)

    Taf: TAF AMD LFJL 210832Z 2108/2206 VRB03KT 1000 BCFG NSC PROB30 TEMPO 2108/2109 0300 FG VV/// BECMG 2108/2111 CAVOK BECMG 2122/2201 3000 BCFG PROB30 TEMPO 2203/2206 0400 FG VV///=

    Metar: nil

  • Saarbrücken/Intl (EDDR)

    Taf: TAF EDDR 210500Z 2106/2206 VRB02KT 7000 NSC TEMPO 2106/2110 2000 BCFG PROB30 TEMPO 2106/2109 0700 FG BKN001 BECMG 2108/2110 25005KT PROB30 TEMPO 2203/2206 2000 BCFG=

    Metar: nil

  • Hahn (EDFH)

    Taf: TAF EDFH 210500Z 2106/2206 27006KT 9999 SCT025 TEMPO 2201/2206 3000 BR BKN005=

    Metar: nil

  • Ramstein (ETAR)

    Taf: TAF ETAR 211008Z 2110/2216 27009KT 9999 SCT030 BKN035 QNH3036INS BECMG 2204/2205 26006KT 3200 BR SCT035 BKN060 QNH3056INS BECMG 2209/2210 27009KT 9999 NSW BKN035 OVC050 QNH3050INS BECMG 2214/2215 26009KT 9999 SCT010 BKN030 QNH3048INS TX12/2115Z TN01/2206Z=

    Metar: nil

  • Nancy/Ochey (LFSO)

    Taf: TAF LFSO 210800Z NIL=

    Metar: nil

  • Liège Bierset (EBLG)

    Taf: TAF EBLG 210500Z 2106/2212 22007KT 9999 SCT030 PROB40 2123/2202 2500 BR BKN003 BECMG 2202/2204 1400 BR -DZ BKN002 PROB40 TEMPO 2205/2210 0500 -DZ FG BKN001=

    Metar: nil

  • Saint-Dizier (LFSI)

    Taf: TAF LFSI 210800Z 2109/2209 VRB02KT CAVOK TEMPO 2122/2208 2000 BR=

    Metar: nil

  • Maastricht/Zuid Limburg (EHBK)

    Taf: TAF EHBK 210507Z 2106/2212 23008KT 9999 SCT025 BECMG 2200/2203 4000 BR BECMG 2203/2206 2000 BKN003 PROB30 2204/2209 0500 FG BKN001 BECMG 2209/2212 4000 BKN005=

    Metar: nil

  • Köln/Köln-Bonn (EDDK)

    Taf: TAF EDDK 210500Z 2106/2212 VRB03KT 9999 SCT040 BECMG 2110/2113 26006KT TEMPO 2118/2201 32004KT 4000 BR BKN013 TEMPO 2201/2210 33006KT 2000 -RA BR BKN008=

    Metar: METAR EDDK 210950Z 15005KT 9999 FEW029 09/04 Q1027 NOSIG=

  • Charleroi (EBCI)

    Taf: TAF EBCI 210500Z 2106/2212 22007KT 9999 SCT025 PROB30 TEMPO 2106/2108 4000 BR PROB40 2122/2202 3500 BR BKN003 BECMG 2202/2204 2000 BR SCT002 BKN003 PROB40 TEMPO 2204/2209 0500 FG BKN001=

    Metar: nil

  • Wiesbaden (ETOU)

    Taf: TAF ETOU 210413Z 2104/2210 23006KT 9999 SCT030 BKN040 QNH3028INS BECMG 2205/2206 28006KT 8000 BR BKN020 QNH3040INS BECMG 2208/2209 23006KT 9999 NSW SCT030 BKN040 QNH3042INS TX11/2114Z TN00/2200Z=

    Metar: nil

  • Karlsruhe/Baden-Baden (EDSB)

    Taf: TAF EDSB 210500Z 2106/2206 21004KT 6000 NSC TEMPO 2106/2110 2000 BR PROB30 TEMPO 2106/2110 0500 FZFG BKN001=

    Metar: nil

  • Chalons/Vatry (LFOK)

    Taf: TAF AMD LFOK 210822Z 2108/2206 VRB02KT 2000 BR NSC PROB30 TEMPO 2108/2109 0800 BCFG BECMG 2109/2111 CAVOK BECMG 2122/2124 4000 BR BECMG 2200/2203 0500 FG VV///=

    Metar: nil

  • Brüssel (EBBR)

    Taf: TAF EBBR 210500Z 2106/2212 23007KT 9999 SCT030 PROB40 2121/2201 4000 BR BKN004 BECMG 2201/2203 2500 BR BKN003 PROB30 TEMPO 2205/2208 0800 BCFG BKN001=

    Metar: METAR EBBR 210950Z 24004KT CAVOK 10/08 Q1027 NOSIG=

  • Düsseldorf (EDDL)

    Taf: TAF EDDL 210500Z 2106/2212 17006KT 9999 SCT040 BECMG 2108/2111 24008KT TEMPO 2118/2123 BKN014 TEMPO 2123/2208 30005KT 4000 -RA BR BKN007=

    Metar: nil

  • Luxeuil (LFSX)

    Taf: TAF LFSX 210800Z 2109/2209 VRB03KT CAVOK TEMPO 2200/2206 3000 BR=

    Metar: nil

  • Eindhoven (EHEH)

    Taf: TAF EHEH 210517Z 2106/2212 20007KT 3500 BR SCT040 BKN250 BECMG 2106/2109 9999 NSW TEMPO 2109/2116 25007G17KT PROB30 2203/2208 0600 FG OVC000 PROB40 2208/2212 SCT006 BKN010=

    Metar: nil

  • Niederrhein (EDLV)

    Taf: TAF EDLV 210500Z 2106/2206 21006KT 9999 SCT040 BECMG 2118/2121 27004KT TEMPO 2120/2202 4000 -RA BR BKN014 TEMPO 2202/2206 2000 BR BKN008=

    Metar: nil

  • Dortmund/Wickede (EDLW)

    Taf: TAF EDLW 210500Z 2106/2206 22009KT 9999 SCT045 BECMG 2118/2121 28004KT TEMPO 2118/2202 4500 -RA BR BKN008 TEMPO 2202/2206 3500 -DZ BR BKN004=

    Metar: nil

  • Stuttgart/Echterdingen (EDDS)

    Taf: TAF EDDS 210500Z 2106/2206 VRB02KT 7000 SCT030 PROB40 TEMPO 2106/2108 2000 BR BECMG 2108/2110 27005KT=

    Metar: METAR EDDS 210950Z VRB02KT 9999 FEW034 08/03 Q1028 NOSIG=

  • Basel-Mühlhausen (LFSB)

    Taf: TAF LFSB 210500Z 2106/2206 18005KT 7000 NSC PROB30 TEMPO 2106/2107 3000 BR BECMG 2107/2111 CAVOK=

    Metar: METAR LFSB 211000Z 16007KT 130V190 CAVOK 10/04 Q1029 NOSIG=

  • Lille (LFQQ)

    Taf: TAF AMD LFQQ 210514Z 2105/2206 16005KT 4000 BR NSC PROB40 TEMPO 2106/2109 0400 FG VV/// BECMG 2110/2112 9999 NSW BECMG 2200/2203 4000 BR PROB40 TEMPO 2203/2206 0400 FG VV///=

    Metar: nil

  • Paris/Charles de Gaulle (LFPG)

    Taf: TAF AMD LFPG 210707Z 2107/2212 VRB03KT 3000 BR NSC TX14/2115Z TN02/2206Z PROB40 TEMPO 2107/2109 0600 BCFG PROB30 TEMPO 2107/2109 0200 FG VV/// BECMG 2109/2111 CAVOK BECMG 2123/2124 4000 BR TEMPO 2202/2210 0800 BCFG VV/// PROB40 TEMPO 2206/2210 0200 FG=

    Metar: nil

  • Paderborn/Lippstadt (EDLP)

    Taf: TAF EDLP 210500Z 2106/2206 23008KT 9999 SCT040 BECMG 2115/2118 29005KT 4000 BR BKN012 TEMPO 2118/2206 2000 -RA BR BKN004=

    Metar: nil

  • Paris/Le Bourget (LFPB)

    Taf: TAF AMD LFPB 210709Z 2107/2206 VRB03KT 3000 BR NSC PROB40 TEMPO 2107/2109 0600 BCFG PROB30 TEMPO 2107/2109 0200 FG VV/// BECMG 2109/2111 CAVOK BECMG 2123/2124 4000 BR TEMPO 2202/2206 0800 BCFG VV///=

    Metar: METAR LFPB 211000Z AUTO 16004KT 120V190 6000 NSC 11/07 Q1028 NOSIG=

  • Rotterdam (EHRD)

    Taf: TAF EHRD 210505Z 2106/2212 21008KT CAVOK PROB30 TEMPO 2107/2114 7000 -RA BKN030 BECMG 2111/2114 26013KT BKN015 PROB30 TEMPO 2114/2120 4000 -DZ BKN008 BECMG 2119/2122 23005KT 6000 NSC BECMG 2122/2201 4000 BR BECMG 2201/2204 2000 PROB40 2204/2209 0600 FG VV001 BECMG 2209/2212 6000 NSW BKN020=

    Metar: nil

  • Zürich/Kloten (LSZH)

    Taf: TAF LSZH 210825Z 2109/2215 VRB03KT CAVOK TX14/2114Z TN01/2204Z TX12/2214Z BECMG 2123/2202 9999 BKN060 BECMG 2212/2215 05006KT=

    Metar: METAR LSZH 210950Z VRB02KT CAVOK 07/01 Q1030 NOSIG=

  • Oostende/Intl (EBOS)

    Taf: TAF EBOS 210500Z 2106/2212 20008KT 7000 FEW020 TEMPO 2106/2108 2500 BR BECMG 2111/2113 26012KT PROB40 TEMPO 2114/2203 4000 BR BKN005 BECMG 2203/2205 20004KT 3500 BR BKN004 PROB40 TEMPO 2205/2209 0700 FG BKN001=

    Metar: nil

  • Paris/Orly (LFPO)

    Taf: TAF LFPO 210500Z 2106/2212 VRB03KT 4000 BR NSC PROB40 TEMPO 2107/2109 0800 BCFG PROB30 TEMPO 2107/2109 0300 FG VV/// BECMG 2109/2111 CAVOK BECMG 2123/2202 3000 BR PROB40 TEMPO 2202/2208 0800 BCFG BECMG 2208/2210 CAVOK=

    Metar: nil

  • Beauvais (LFOB)

    Taf: TAF AMD LFOB 210821Z 2108/2206 VRB02KT 3000 BR SCT030 TEMPO 2108/2110 0300 FG VV/// BECMG 2110/2112 CAVOK BECMG 2122/2124 4000 BR PROB40 TEMPO 2200/2206 0800 BCFG=

    Metar: nil

  • Münster/Intl (EDDG)

    Taf: TAF EDDG 210500Z 2106/2206 19005KT 9999 FEW040 BECMG 2110/2113 25008KT BECMG 2115/2118 BKN013 TEMPO 2118/2206 4000 -RA BR BKN006=

    Metar: METAR EDDG 210950Z 22005KT 180V240 9999 -RA BKN037 08/05 Q1026 NOSIG=

  • Illesheim (ETIK)

    Taf: TAF ETIK 2106/2212 23006KT 9999 BKN030 OVC090 QNH3030INS BECMG 2108/2109 26009KT 9999 SCT020 BKN050 QNH3032INS BECMG 2121/2122 27009KT 8000 -DZ SCT020 QNH3036INS BECMG 2123/2124 29009KT 9999 NSW BKN020 QNH3040INS TX11/2114Z TNM01/2201Z=

    Metar: nil

  • Duebendorf (LSMD)

    Taf: TAF LSMD 210925Z 2110/2216 VRB03KT CAVOK TEMPO 2122/2216 9999 SCT080=

    Metar: nil

  • Villacoublay (LFPV)

    Taf: TAF LFPV 210800Z 2109/2209 20003KT 2700 BR NSC BECMG 2109/2110 CAVOK BECMG 2123/2201 1500 BR PROB30 TEMPO 2203/2208 0800 FG=

    Metar: nil

  • Payerne (LSMP)

    Taf: TAF LSMP 210925Z 2110/2216 VRB02KT CAVOK TEMPO 2200/2209 4500 BR NSC=

    Metar: nil

  • Amsterdam/Schipol (EHAM)

    Taf: TAF EHAM 210505Z 2106/2212 21008KT CAVOK PROB40 TEMPO 2107/2113 7000 -RA BKN030 BECMG 2111/2114 26013KT BKN015 PROB40 TEMPO 2113/2120 4000 -DZ BKN008 BECMG 2119/2122 23005KT 6000 NSC BECMG 2122/2201 4000 BR BECMG 2201/2204 2000 PROB40 2204/2209 0600 FG VV001 BECMG 2209/2212 6000 NSW BKN020=

    Metar: METAR COR EHAM 210955Z 24010KT 200V280 6000 -RADZ FEW017 SCT022 BKN038 10/08 Q1025 BECMG BKN015 TEMPO 4000=

  • Emmen (LSME)

    Taf: TAF LSME 210925Z 2110/2216 VRB03KT CAVOK TEMPO 2123/2216 9999 SCT080=

    Metar: nil

  • Friedrichshafen (EDNY)

    Taf: TAF EDNY 210500Z 2106/2206 VRB01KT 6000 NSC TEMPO 2106/2108 2000 BCFG PROB30 TEMPO 2106/2107 0700 FZFG VV002 TEMPO 2111/2116 23005KT=

    Metar: nil

  • Alpnach (LSMA)

    Taf: TAF LSMA 210925Z 2110/2216 VRB03KT CAVOK TEMPO 2123/2216 9999 SCT080=

    Metar: nil

  • Meiringen (LSMM)

    Taf: TAF LSMM 210925Z 2110/2216 VRB03KT CAVOK TEMPO 2202/2216 9999 SCT080=

    Metar: nil

  • Nürnberg (EDDN)

    Taf: TAF EDDN 210500Z 2106/2206 12005KT 9999 FEW040 BECMG 2109/2111 27007KT=

    Metar: METAR EDDN 210950Z 13004KT 100V180 9999 FEW030 07/03 Q1028 NOSIG=

  • Rouen (LFOP)

    Taf: TAF AMD LFOP 210853Z 2108/2206 16005KT 1200 BR NSC TEMPO 2108/2110 0300 FG VV/// BECMG 2110/2113 CAVOK BECMG 2122/2124 3000 BR PROB40 2200/2206 0500 FG VV///=

    Metar: nil

  • Evreux (LFOE)

    Taf: TAF LFOE 210800Z 2109/2209 19003KT 1500 BR BKN003 TEMPO 2109/2110 0300 FG VV/// BECMG 2110/2113 6000 NSW NSC BECMG 2122/2124 2000 BR BECMG 2200/2203 0200 FG VV///=

    Metar: nil

  • Erfurt/Bindersleben (EDDE)

    Taf: TAF EDDE 210500Z 2106/2206 22007KT CAVOK BECMG 2110/2112 28012KT BECMG 2115/2117 25005KT BECMG 2121/2124 31008KT BKN013 TEMPO 2200/2206 BKN009=

    Metar: nil